• Join FlightAware (Why Join?)
  • Login
  • US Flag 
07:40AM EDT


 

Airport Tracker/Info


-or-


 

Live Flight TrackerFlight Track Log ✈ THY1041 ✈ 29-Jul-2013 ✈ LTBA / IST - LROP / OTP

Flight Track Log - Related Links

Times and Time Zones

All times are in EDT time to prevent confusion due to time zone crossing. See the THY1041 flight status page for this flight to view local times or setup timezone preferences in your user account.

Time Position Orientation Groundspeed Altitude Reporting Facility
EDT Latitude Longitude Course Direction KTS MPH feet Rate Location/Type
04:09PM 41.5634 28.4017 332° Northwest  Level Estimated
04:10PM 41.6610 28.3311 332° Northwest  Level Estimated
04:11PM 41.7585 28.2602 332° Northwest  Level Estimated
04:12PM 41.8560 28.1891 332° Northwest  Level Estimated
04:13PM 41.9535 28.1178 331° Northwest  Level Estimated
04:14PM 42.0509 28.0463 331° Northwest  Level Estimated
04:15PM 42.1483 27.9746 331° Northwest  Level Estimated
04:16PM 42.2456 27.9026 331° Northwest  Level Estimated
04:17PM 42.3429 27.8305 331° Northwest  Level Estimated
04:18PM 42.4402 27.7581 331° Northwest  Level Estimated
04:19PM 42.5374 27.6855 331° Northwest  Level Estimated
04:20PM 42.6345 27.6126 331° Northwest  Level Estimated
04:21PM 42.7316 27.5396 331° Northwest  Level Estimated
04:22PM 42.8287 27.4662 331° Northwest  Level Estimated
04:23PM 42.9257 27.3927 331° Northwest  Level Estimated
04:24PM 43.0227 27.3190 331° Northwest  Level Estimated
04:25PM 43.1196 27.2450 331° Northwest  Level Estimated
04:26PM 43.2164 27.1707 331° Northwest  Level Estimated
04:27PM 43.3133 27.0963 331° Northwest  Level Estimated
04:28PM 43.4100 27.0215 331° Northwest  Level Estimated
04:29PM 43.5068 26.9466 331° Northwest  Level Estimated
04:30PM 43.6034 26.8714 331° Northwest  Level Estimated
04:31PM 43.7001 26.7960 331° Northwest  Level Estimated
04:32PM 43.7966 26.7203 331° Northwest  Level Estimated
04:33PM 43.8932 26.6444 330° Northwest  Level Estimated
04:34PM 43.9897 26.5682 330° Northwest  Level Estimated
04:35PM 44.0861 26.4918 330° Northwest  Level Estimated
04:36PM 44.1824 26.4152 330° Northwest  Level Estimated
04:37PM 44.2788 26.3383 330° Northwest  Level Estimated
04:38PM 44.3750 26.2611 330° Northwest  Level Estimated
04:39PM 44.4712 26.1837 330° Northwest  Level Estimated
04:40PM 44.5674 26.1060 330° Northwest  Level Estimated
04:41PM 44.5722 26.1022 330° Northwest  Level Estimated
04:42PM 44.5722 26.1022 119° Southeast  Level Estimated
04:43PM 44.5722 26.1022 119° Southeast  Level Estimated
04:44PM 44.5722 26.1022 119° Southeast  Level Estimated
04:45PM 44.5722 26.1022 119° Southeast  Level Estimated
04:46PM 44.5722 26.1022 119° Southeast  Level Estimated
04:47PM 44.5722 26.1022 119° Southeast  Level Estimated
04:48PM 44.5722 26.1022 119° Southeast  Level Estimated
04:49PM 44.5722 26.1022 119° Southeast  Level Estimated
04:50PM 44.5722 26.1022 119° Southeast  Level Estimated
04:51PM 44.5722 26.1022 119° Southeast  Level Estimated
04:52PM 44.5722 26.1022 119° Southeast  Level Estimated
04:53PM 44.5722 26.1022 119° Southeast  Level Estimated
04:54PM 44.5722 26.1022 119° Southeast  Level Estimated
04:55PM 44.5722 26.1022 119° Southeast  Level Estimated
04:56PM 44.5722 26.1022 119° Southeast  Level Estimated